Time;durP1;ratioP1;P1;durP2;ratioP2;P2;SDS_P1;SDS_P2;PMS_P1;PMS_P2;Temp;Humidity;BMP_temperature;BMP_pressure;BME280_temperature;BME280_humidity;BME280_pressure;Samples;Min_cycle;Max_cycle;Signal;HPM_P1;HPM_P2
2021/08/14 00:02:12;;;;;;;24.00;5.53;;;;;;;15.43;83.69;102299.59;5055062;28;20086;-73
2021/08/14 00:04:37;;;;;;;21.30;5.72;;;;;;;15.43;84.63;102296.91;5055623;28;20033;-73
2021/08/14 00:07:03;;;;;;;35.85;6.40;;;;;;;15.44;84.40;102290.59;5054949;28;20056;-73
2021/08/14 00:09:29;;;;;;;25.30;5.90;;;;;;;15.43;84.72;102294.25;5055725;28;20086;-73
2021/08/14 00:11:54;;;;;;;24.23;6.15;;;;;;;15.43;84.42;102294.25;5054755;28;20037;-72
2021/08/14 00:14:20;;;;;;;26.15;5.50;;;;;;;15.46;84.22;102299.34;5055493;28;20039;-73
2021/08/14 00:16:45;;;;;;;38.13;6.93;;;;;;;15.53;84.52;102297.81;5055463;28;20458;-73
2021/08/14 00:19:11;;;;;;;31.00;6.07;;;;;;;15.57;84.34;102303.75;5054527;28;20474;-74
2021/08/14 00:21:36;;;;;;;33.00;6.28;;;;;;;15.56;84.27;102299.38;5053681;28;20111;-73
2021/08/14 00:24:02;;;;;;;38.97;6.70;;;;;;;15.55;84.82;102305.72;5054512;28;20033;-73
2021/08/14 00:26:27;;;;;;;33.35;7.00;;;;;;;15.54;84.58;102299.50;5037728;28;20036;-73
2021/08/14 00:28:53;;;;;;;24.95;5.93;;;;;;;15.54;84.75;102296.84;5055296;28;20470;-73
2021/08/14 00:31:18;;;;;;;36.15;7.03;;;;;;;15.54;84.74;102293.28;5054616;28;20025;-73
2021/08/14 00:33:44;;;;;;;38.22;7.05;;;;;;;15.52;84.94;102288.91;5053881;28;20033;-73
2021/08/14 00:36:09;;;;;;;29.40;6.72;;;;;;;15.50;85.40;102288.19;5054345;28;20378;-73
2021/08/14 00:38:35;;;;;;;35.35;6.85;;;;;;;15.47;85.57;102283.09;5054930;28;20423;-73
2021/08/14 00:41:00;;;;;;;33.88;7.30;;;;;;;15.44;85.60;102286.06;5054367;28;20060;-73
2021/08/14 00:43:26;;;;;;;35.85;6.85;;;;;;;15.45;85.60;102287.75;5054767;28;20033;-73
2021/08/14 00:45:51;;;;;;;26.90;6.18;;;;;;;15.49;85.74;102293.69;5054151;28;20033;-73
2021/08/14 00:48:17;;;;;;;42.20;6.97;;;;;;;15.54;85.78;102290.59;5054154;28;20033;-73
2021/08/14 00:50:42;;;;;;;33.55;6.60;;;;;;;15.55;85.78;102293.13;5054587;28;20099;-73
2021/08/14 00:53:08;;;;;;;33.47;6.18;;;;;;;15.56;85.27;102289.47;5053886;28;20025;-74
2021/08/14 00:55:33;;;;;;;34.30;7.30;;;;;;;15.58;85.82;102289.34;5054472;28;20060;-73
2021/08/14 00:57:59;;;;;;;38.35;6.70;;;;;;;15.59;85.38;102286.53;5054222;28;20029;-72
2021/08/14 01:00:25;;;;;;;36.28;7.13;;;;;;;15.58;85.71;102276.78;5054753;28;20037;-73
2021/08/14 01:02:54;;;;;;;35.15;6.72;;;;;;;15.57;85.63;102282.28;5054335;28;20040;-73
2021/08/14 01:05:19;;;;;;;30.77;6.07;;;;;;;15.52;85.64;102271.97;5053877;28;20051;-73
2021/08/14 01:07:45;;;;;;;32.65;6.10;;;;;;;15.47;85.80;102269.69;5054591;28;20025;-74
2021/08/14 01:10:11;;;;;;;29.48;6.35;;;;;;;15.43;86.18;102262.91;5053703;28;20025;-74
2021/08/14 01:12:36;;;;;;;31.58;6.22;;;;;;;15.41;86.26;102264.88;5054260;28;20389;-74
2021/08/14 01:15:03;;;;;;;41.58;7.93;;;;;;;15.41;86.86;102261.34;5053676;28;20044;-73
2021/08/14 01:17:29;;;;;;;34.83;7.07;;;;;;;15.42;86.38;102266.59;5054433;28;20037;-73
2021/08/14 01:19:54;;;;;;;32.42;6.88;;;;;;;15.41;86.60;102264.03;5054378;28;20029;-74
2021/08/14 01:22:20;;;;;;;28.70;6.35;;;;;;;15.38;86.91;102273.19;5053726;28;20473;-73
2021/08/14 01:24:45;;;;;;;35.05;8.38;;;;;;;15.34;86.93;102272.59;5054488;28;20087;-73
2021/08/14 01:27:12;;;;;;;42.08;7.07;;;;;;;15.32;86.77;102276.41;5053850;28;20139;-73
2021/08/14 01:29:38;;;;;;;32.47;6.75;;;;;;;15.30;87.23;102268.50;5054398;28;20108;-73
2021/08/14 01:32:06;;;;;;;38.10;7.80;;;;;;;15.28;86.81;102272.31;5053207;28;20021;-74
2021/08/14 01:34:31;;;;;;;34.70;7.18;;;;;;;15.25;87.46;102262.69;5053882;28;20024;-73
2021/08/14 01:36:57;;;;;;;33.78;6.82;;;;;;;15.25;87.99;102262.69;5036664;28;20040;-73
2021/08/14 01:39:22;;;;;;;36.92;7.65;;;;;;;15.26;87.91;102260.88;5053285;28;20041;-73
2021/08/14 01:41:59;;;;;;;34.17;7.28;;;;;;;15.30;87.86;102259.59;5052754;28;20036;-73
2021/08/14 01:44:26;;;;;;;30.05;6.43;;;;;;;15.37;87.81;102257.25;5052962;28;20102;-73
2021/08/14 01:46:52;;;;;;;25.98;6.63;;;;;;;15.40;87.58;102257.81;5053605;28;20087;-74
2021/08/14 01:49:19;;;;;;;32.42;6.70;;;;;;;15.40;87.66;102256.97;5053047;28;20029;-73
2021/08/14 01:51:45;;;;;;;35.50;7.93;;;;;;;15.40;87.91;102255.13;5053544;28;20060;-74
2021/08/14 01:54:11;;;;;;;37.20;6.97;;;;;;;15.43;87.84;102246.81;5051600;28;20071;-73
2021/08/14 01:56:36;;;;;;;37.47;7.30;;;;;;;15.45;87.49;102250.22;5052599;28;20057;-73
2021/08/14 01:59:02;;;;;;;32.50;6.68;;;;;;;15.46;87.64;102249.22;5053549;28;20033;-73
2021/08/14 02:01:27;;;;;;;36.33;6.25;;;;;;;15.45;87.38;102246.66;5052653;28;20029;-73
2021/08/14 02:03:53;;;;;;;30.17;6.68;;;;;;;15.47;87.51;102250.06;5053177;28;20473;-73
2021/08/14 02:06:21;;;;;;;27.75;6.78;;;;;;;15.46;87.24;102241.16;5052750;28;20433;-73
2021/08/14 02:08:46;;;;;;;34.47;6.78;;;;;;;15.48;87.43;102246.38;5035672;28;20083;-73
2021/08/14 02:11:22;;;;;;;37.00;7.63;;;;;;;15.45;87.67;102242.16;5052536;28;20032;-72
2021/08/14 02:13:49;;;;;;;26.52;5.70;;;;;;;15.46;87.66;102240.31;5053061;28;20021;-73
2021/08/14 02:16:15;;;;;;;28.50;6.22;;;;;;;15.43;87.84;102237.91;5034899;28;20381;-72
2021/08/14 02:18:41;;;;;;;27.50;6.35;;;;;;;15.42;87.96;102239.75;5053038;28;20032;-74
2021/08/14 02:21:08;;;;;;;31.00;6.45;;;;;;;15.43;87.36;102237.91;5052764;28;20029;-73
2021/08/14 02:23:34;;;;;;;36.58;6.97;;;;;;;15.43;88.06;102235.25;5052667;28;20025;-73
2021/08/14 02:26:00;;;;;;;29.98;6.90;;;;;;;15.44;87.79;102234.25;5052590;28;20059;-73
2021/08/14 02:28:26;;;;;;;37.90;7.43;;;;;;;15.45;87.69;102234.13;5051987;28;20465;-73
2021/08/14 02:30:52;;;;;;;39.33;7.38;;;;;;;15.46;87.64;102233.13;5052919;28;20072;-74
2021/08/14 02:33:17;;;;;;;32.20;6.85;;;;;;;15.48;87.57;102225.81;5052239;28;20456;-72
2021/08/14 02:35:43;;;;;;;35.65;7.43;;;;;;;15.51;87.63;102224.69;5052854;28;20033;-72
2021/08/14 02:38:08;;;;;;;40.38;7.45;;;;;;;15.54;87.32;102223.53;5052529;28;20078;-73
2021/08/14 02:40:34;;;;;;;33.67;6.93;;;;;;;15.52;87.38;102229.03;5052172;28;20115;-72
2021/08/14 02:43:00;;;;;;;38.38;7.90;;;;;;;15.50;87.58;102228.34;5052765;28;20071;-72
2021/08/14 02:45:26;;;;;;;34.83;7.32;;;;;;;15.50;87.54;102225.66;5052026;28;20069;-72
2021/08/14 02:47:51;;;;;;;39.30;7.15;;;;;;;15.49;87.33;102218.59;5052614;28;20036;-73
2021/08/14 02:50:17;;;;;;;29.83;7.18;;;;;;;15.48;87.63;102227.63;5051776;28;20072;-73
2021/08/14 02:52:43;;;;;;;30.15;6.90;;;;;;;15.46;88.04;102225.06;5052345;28;20060;-73
2021/08/14 02:55:09;;;;;;;31.15;5.93;;;;;;;15.46;87.31;102226.91;5052530;28;20049;-73
2021/08/14 02:57:34;;;;;;;35.13;7.63;;;;;;;15.45;87.48;102230.56;5052090;28;20057;-73
2021/08/14 02:59:59;;;;;;;33.70;7.00;;;;;;;15.44;87.87;102229.72;5052501;28;20029;-74
2021/08/14 03:02:24;;;;;;;38.40;7.65;;;;;;;15.41;87.81;102221.97;5051629;28;20500;-73
2021/08/14 03:04:50;;;;;;;39.50;8.25;;;;;;;15.40;87.90;102224.78;5052185;28;20083;-73
2021/08/14 03:07:15;;;;;;;30.15;6.45;;;;;;;15.36;88.07;102229.59;5051642;28;20535;-72
2021/08/14 03:09:40;;;;;;;37.15;7.32;;;;;;;15.37;88.17;102227.75;5052527;28;20039;-72
2021/08/14 03:12:06;;;;;;;34.30;6.90;;;;;;;15.38;87.79;102230.28;5052390;28;20124;-73
2021/08/14 03:14:31;;;;;;;37.45;8.02;;;;;;;15.39;87.84;102234.69;5051426;28;20039;-72
2021/08/14 03:16:57;;;;;;;35.47;7.28;;;;;;;15.38;87.69;102240.19;5051950;28;20025;-73
2021/08/14 03:19:22;;;;;;;25.88;6.03;;;;;;;15.34;88.02;102236.91;5051720;28;20575;-72
2021/08/14 03:21:47;;;;;;;33.95;7.10;;;;;;;15.32;87.58;102233.53;5052263;28;20377;-72
2021/08/14 03:24:13;;;;;;;29.95;6.60;;;;;;;15.30;87.77;102228.28;5052332;28;20091;-73
2021/08/14 03:26:38;;;;;;;36.97;7.22;;;;;;;15.31;87.77;102231.81;5050388;28;20033;-73
2021/08/14 03:29:03;;;;;;;37.60;6.82;;;;;;;15.26;88.22;102228.72;5052313;28;20029;-73
2021/08/14 03:31:29;;;;;;;35.35;7.53;;;;;;;15.22;88.46;102228.09;5051869;28;20033;-72
2021/08/14 03:33:54;;;;;;;30.63;7.07;;;;;;;15.19;88.95;102224.88;5051877;28;20163;-73
2021/08/14 03:36:19;;;;;;;36.78;7.05;;;;;;;15.13;89.09;102221.72;5051557;28;20029;-72
2021/08/14 03:38:45;;;;;;;36.35;7.43;;;;;;;15.07;88.89;102214.22;5052312;28;20087;-72
2021/08/14 03:41:10;;;;;;;31.63;6.53;;;;;;;14.99;88.93;102212.22;5052031;28;20052;-73
2021/08/14 03:43:36;;;;;;;38.05;7.15;;;;;;;14.94;89.12;102213.59;5051512;28;20036;-73
2021/08/14 03:46:03;;;;;;;31.08;7.03;;;;;;;14.91;89.32;102201.34;5052120;28;20037;-73
2021/08/14 03:48:28;;;;;;;37.03;8.07;;;;;;;14.85;89.41;102201.03;5051384;28;20044;-73
2021/08/14 03:50:53;;;;;;;36.60;7.18;;;;;;;14.83;89.69;102205.69;5050514;28;20036;-72
2021/08/14 03:53:19;;;;;;;34.88;7.28;;;;;;;14.79;89.99;102203.28;5051748;28;20036;-73
2021/08/14 03:55:45;;;;;;;40.58;8.27;;;;;;;14.74;89.95;102196.59;5050608;28;20056;-72
2021/08/14 03:58:10;;;;;;;32.70;7.38;;;;;;;14.68;89.99;102206.03;5052001;28;20037;-73
2021/08/14 04:00:36;;;;;;;41.20;7.55;;;;;;;14.60;90.13;102203.97;5051567;28;20151;-73
2021/08/14 04:03:01;;;;;;;35.88;7.43;;;;;;;14.54;89.83;102199.16;5051832;28;20465;-73
2021/08/14 04:05:27;;;;;;;49.25;8.25;;;;;;;14.51;90.48;102209.25;5050140;28;20025;-73
2021/08/14 04:07:53;;;;;;;42.75;9.27;;;;;;;14.49;90.70;102203.19;5051894;28;20057;-73
2021/08/14 04:10:18;;;;;;;50.30;9.05;;;;;;;14.43;91.39;102201.88;5051935;28;20479;-72
2021/08/14 04:12:44;;;;;;;49.50;8.48;;;;;;;14.37;91.29;102203.25;5050995;28;20029;-73
2021/08/14 04:15:10;;;;;;;43.25;8.63;;;;;;;14.31;91.02;102197.59;5051721;28;20461;-73
2021/08/14 04:17:36;;;;;;;44.95;9.23;;;;;;;14.26;91.39;102206.00;5051207;28;20056;-73
2021/08/14 04:20:02;;;;;;;42.40;8.50;;;;;;;14.24;91.82;102194.56;5052332;28;20052;-73
2021/08/14 04:22:27;;;;;;;32.85;7.82;;;;;;;14.20;91.87;102201.19;5054460;28;20076;-73
2021/08/14 04:24:53;;;;;;;38.83;7.55;;;;;;;14.14;91.54;102196.31;5055289;28;20040;-73
2021/08/14 04:27:18;;;;;;;48.95;9.93;;;;;;;14.11;92.16;102194.78;5055260;28;20036;-73
2021/08/14 04:29:43;;;;;;;33.78;8.60;;;;;;;14.08;92.26;102203.06;5053128;28;20336;-73
2021/08/14 04:32:09;;;;;;;46.95;9.93;;;;;;;14.08;92.26;102197.72;5054869;28;20039;-73
2021/08/14 04:34:34;;;;;;;41.97;8.55;;;;;;;14.10;92.72;102201.09;5054236;28;20067;-73
2021/08/14 04:36:59;;;;;;;39.20;9.15;;;;;;;14.15;92.87;102198.03;5053934;28;20461;-73
2021/08/14 04:39:25;;;;;;;48.35;10.60;;;;;;;14.18;92.88;102201.31;5055070;28;20036;-73
2021/08/14 04:41:50;;;;;;;41.10;9.57;;;;;;;14.23;93.08;102190.22;5053082;28;20039;-73
2021/08/14 04:44:16;;;;;;;46.53;9.93;;;;;;;14.27;92.99;102202.34;5055018;28;20111;-73
2021/08/14 04:46:41;;;;;;;46.72;8.82;;;;;;;14.29;92.90;102193.19;5054201;28;20041;-73
2021/08/14 04:49:07;;;;;;;39.55;9.50;;;;;;;14.35;92.68;102197.19;5054748;28;20461;-73
2021/08/14 04:51:32;;;;;;;44.20;9.07;;;;;;;14.42;93.18;102194.81;5053911;28;20124;-73
2021/08/14 04:53:58;;;;;;;42.88;8.77;;;;;;;14.53;93.12;102202.81;5054551;28;20033;-73
2021/08/14 04:56:24;;;;;;;45.88;9.77;;;;;;;14.61;92.70;102195.00;5053162;28;20183;-73
2021/08/14 04:58:49;;;;;;;42.85;8.45;;;;;;;14.70;92.27;102200.53;5054123;28;20044;-72
2021/08/14 05:01:14;;;;;;;47.35;9.15;;;;;;;14.73;91.65;102200.25;5054441;28;20040;-73
2021/08/14 05:03:40;;;;;;;36.47;8.82;;;;;;;14.77;91.26;102204.38;5053923;28;20470;-73
2021/08/14 05:06:08;;;;;;;39.20;8.57;;;;;;;14.77;90.66;102204.38;5054208;28;20033;-73
2021/08/14 05:08:36;;;;;;;34.25;7.38;;;;;;;14.73;90.64;102198.41;5053563;28;20385;-73
2021/08/14 05:11:03;;;;;;;35.78;8.25;;;;;;;14.74;90.94;102193.94;5053154;28;20033;-73
2021/08/14 05:13:28;;;;;;;51.10;10.73;;;;;;;14.74;91.03;102193.94;5054338;28;20043;-73
2021/08/14 05:15:53;;;;;;;37.47;8.80;;;;;;;14.74;91.12;102197.44;5053757;28;20033;-73
2021/08/14 05:18:19;;;;;;;43.25;8.25;;;;;;;14.76;91.00;102192.81;5054305;28;20377;-73
2021/08/14 05:20:44;;;;;;;49.40;9.27;;;;;;;14.83;91.07;102195.78;5053691;28;20025;-73
2021/08/14 05:23:10;;;;;;;39.58;8.77;;;;;;;14.91;90.94;102197.81;5052903;28;20037;-73
2021/08/14 05:25:35;;;;;;;38.28;7.80;;;;;;;15.02;90.81;102207.56;5053116;28;20483;-73
2021/08/14 05:28:01;;;;;;;37.25;8.38;;;;;;;15.19;91.28;102214.13;5054033;28;20116;-73
2021/08/14 05:30:26;;;;;;;41.85;8.48;;;;;;;15.33;90.19;102217.28;5053982;28;20033;-73
2021/08/14 05:32:52;;;;;;;37.75;8.52;;;;;;;15.50;89.58;102215.78;5053267;28;20371;-73
2021/08/14 05:35:18;;;;;;;35.40;7.95;;;;;;;15.61;88.53;102224.69;5054016;28;20044;-73
2021/08/14 05:37:43;;;;;;;30.20;7.82;;;;;;;15.68;88.14;102223.16;5052014;28;20044;-73
2021/08/14 05:40:09;;;;;;;39.33;8.88;;;;;;;15.72;87.62;102221.91;5053862;28;20033;-73
2021/08/14 05:42:35;;;;;;;35.97;9.82;;;;;;;15.77;87.88;102226.84;5053332;28;20116;-73
2021/08/14 05:45:00;;;;;;;39.85;9.02;;;;;;;15.69;87.30;102217.66;5054530;28;20052;-73
2021/08/14 05:47:26;;;;;;;51.25;11.18;;;;;;;15.61;87.29;102217.47;5053883;28;20037;-73
2021/08/14 05:49:51;;;;;;;47.10;10.27;;;;;;;15.57;87.58;102213.41;5053266;28;20033;-73
2021/08/14 05:52:16;;;;;;;37.65;9.38;;;;;;;15.52;87.62;102213.81;5053441;28;20040;-73
2021/08/14 05:54:42;;;;;;;53.70;11.50;;;;;;;15.49;88.06;102210.53;5053107;28;20473;-73
2021/08/14 05:57:07;;;;;;;44.30;10.10;;;;;;;15.50;88.26;102204.19;5053740;28;20057;-73
2021/08/14 05:59:33;;;;;;;48.85;10.88;;;;;;;15.56;88.42;102213.53;5053433;28;20035;-73
2021/08/14 06:01:58;;;;;;;46.22;10.63;;;;;;;15.63;88.05;102212.84;5052800;28;20064;-73
2021/08/14 06:04:24;;;;;;;52.45;11.43;;;;;;;15.71;87.82;102222.88;5053435;28;20346;-73
2021/08/14 06:06:49;;;;;;;52.92;12.57;;;;;;;15.84;87.20;102212.75;5052803;28;20110;-73
2021/08/14 06:09:14;;;;;;;41.25;10.80;;;;;;;15.92;86.96;102208.50;5052987;28;20385;-73
2021/08/14 06:11:40;;;;;;;52.65;12.75;;;;;;;15.98;86.66;102214.16;5052640;28;20029;-72
2021/08/14 06:14:06;;;;;;;51.50;12.18;;;;;;;16.05;86.80;102211.78;5053613;28;20111;-72
2021/08/14 06:16:32;;;;;;;57.33;12.45;;;;;;;16.09;85.96;102210.47;5052838;28;20473;-73
2021/08/14 06:18:57;;;;;;;52.08;12.50;;;;;;;16.19;85.75;102210.47;5052243;28;20040;-72
2021/08/14 06:21:23;;;;;;;46.80;13.25;;;;;;;16.28;85.85;102225.72;5051860;28;20468;-73
2021/08/14 06:23:48;;;;;;;48.75;12.63;;;;;;;16.32;84.86;102216.41;5052227;28;20041;-73
2021/08/14 06:26:14;;;;;;;44.92;12.70;;;;;;;16.34;85.00;102225.16;5051670;28;20041;-73
2021/08/14 06:28:39;;;;;;;45.58;12.52;;;;;;;16.37;84.92;102226.72;5052356;28;20108;-73
2021/08/14 06:31:04;;;;;;;46.83;12.25;;;;;;;16.47;85.29;102232.09;5052711;28;20029;-73
2021/08/14 06:33:30;;;;;;;57.90;12.43;;;;;;;16.61;84.12;102234.28;5052795;28;20033;-74
2021/08/14 06:35:55;;;;;;;54.67;13.13;;;;;;;16.71;83.36;102226.22;5051136;28;20090;-73
2021/08/14 06:38:21;;;;;;;40.00;10.98;;;;;;;16.82;83.61;102230.56;5052876;28;20037;-73
2021/08/14 06:40:46;;;;;;;36.15;10.60;;;;;;;16.91;83.03;102235.97;5052141;28;20040;-74
2021/08/14 06:43:11;;;;;;;39.38;11.23;;;;;;;17.02;82.58;102243.00;5052370;28;20037;-73
2021/08/14 06:45:37;;;;;;;29.67;10.18;;;;;;;17.16;82.42;102247.03;5052468;28;20071;-74
2021/08/14 06:48:03;;;;;;;39.25;10.88;;;;;;;17.24;82.04;102249.84;5052314;28;20033;-73
2021/08/14 06:50:28;;;;;;;41.42;11.15;;;;;;;17.29;81.09;102249.38;5052961;28;20029;-73
2021/08/14 06:52:53;;;;;;;36.05;10.60;;;;;;;17.27;81.39;102252.22;5052163;28;20032;-73
2021/08/14 06:55:20;;;;;;;42.20;10.23;;;;;;;17.34;81.74;102249.75;5052606;28;20078;-74
2021/08/14 06:57:45;;;;;;;30.10;9.18;;;;;;;17.36;81.44;102241.53;5051462;28;20053;-73
2021/08/14 07:00:11;;;;;;;39.20;10.40;;;;;;;17.38;81.33;102240.41;5052265;28;20461;-74
2021/08/14 07:02:36;;;;;;;34.80;10.55;;;;;;;17.40;81.13;102249.16;5052536;28;20043;-73
2021/08/14 07:05:03;;;;;;;35.53;9.82;;;;;;;17.48;81.40;102244.88;5051938;28;20331;-73
2021/08/14 07:07:29;;;;;;;32.05;9.05;;;;;;;17.56;80.66;102240.44;5052153;28;20397;-74
2021/08/14 07:09:54;;;;;;;35.60;9.70;;;;;;;17.71;80.09;102235.38;5051876;28;20036;-73
2021/08/14 07:12:19;;;;;;;39.92;10.00;;;;;;;17.82;79.24;102239.69;5052072;28;20414;-74
2021/08/14 07:14:45;;;;;;;36.67;9.63;;;;;;;18.02;79.15;102240.44;5051789;28;20033;-73
2021/08/14 07:17:10;;;;;;;37.58;8.95;;;;;;;18.28;78.04;102245.03;5052237;28;20037;-74
2021/08/14 07:19:36;;;;;;;32.63;9.43;;;;;;;18.57;76.74;102244.75;5052276;28;20470;-73
2021/08/14 07:22:01;;;;;;;35.00;9.02;;;;;;;18.92;76.31;102242.13;5051655;28;20468;-72
2021/08/14 07:24:26;;;;;;;32.72;8.00;;;;;;;19.32;75.09;102229.84;5052334;28;20120;-73
2021/08/14 07:26:52;;;;;;;34.67;8.85;;;;;;;19.77;74.19;102244.81;5050495;28;20045;-72
2021/08/14 07:29:17;;;;;;;34.35;8.40;;;;;;;20.08;71.21;102247.75;5052271;28;20480;-72
2021/08/14 07:31:43;;;;;;;30.58;8.20;;;;;;;20.17;70.93;102237.78;5051911;28;20033;-73
2021/08/14 07:34:08;;;;;;;28.45;8.57;;;;;;;20.33;70.24;102236.94;5051914;28;20033;-73
2021/08/14 07:36:33;;;;;;;31.52;8.65;;;;;;;20.31;69.52;102233.53;5050840;28;20469;-75
2021/08/14 07:38:59;;;;;;;33.95;9.05;;;;;;;20.31;69.57;102232.72;5051646;28;20385;-76
2021/08/14 07:41:24;;;;;;;31.40;8.23;;;;;;;20.17;69.01;102235.09;5051772;28;20037;-74
2021/08/14 07:43:49;;;;;;;37.97;9.65;;;;;;;20.11;69.38;102232.19;5051482;28;20033;-74
2021/08/14 07:46:15;;;;;;;30.83;8.40;;;;;;;19.81;70.71;102232.69;5051737;28;20037;-73
2021/08/14 07:48:40;;;;;;;40.58;9.07;;;;;;;19.64;71.86;102236.34;5050788;28;20183;-72
2021/08/14 07:51:05;;;;;;;31.85;8.40;;;;;;;19.73;72.88;102229.94;5051512;28;20033;-73
2021/08/14 07:53:32;;;;;;;28.70;7.70;;;;;;;20.10;70.12;102238.63;5052053;28;20036;-73
2021/08/14 07:55:58;;;;;;;24.92;8.00;;;;;;;20.30;69.43;102229.16;5054635;28;20131;-73
2021/08/14 07:58:23;;;;;;;29.27;8.02;;;;;;;20.35;67.94;102229.50;5055893;28;20134;-73
2021/08/14 08:00:49;;;;;;;33.17;8.20;;;;;;;20.25;68.15;102226.13;5054223;28;20064;-73
2021/08/14 08:03:14;;;;;;;26.02;7.80;;;;;;;20.04;68.40;102224.78;5055666;28;20029;-73
2021/08/14 08:05:39;;;;;;;26.35;7.78;;;;;;;19.99;68.90;102229.84;5048241;28;20037;-74
2021/08/14 08:08:06;;;;;;;32.28;8.80;;;;;;;19.79;70.88;102232.00;5032566;28;20103;-73
2021/08/14 08:10:32;;;;;;;29.42;7.93;;;;;;;19.84;69.98;102229.66;5032648;28;20033;-73
2021/08/14 08:12:58;;;;;;;32.80;8.77;;;;;;;20.01;69.57;102226.97;5032215;28;20119;-72
2021/08/14 08:15:24;;;;;;;25.70;8.77;;;;;;;19.98;69.83;102225.44;5032651;28;20446;-73
2021/08/14 08:17:50;;;;;;;34.97;8.57;;;;;;;20.01;68.40;102225.09;5032608;28;20037;-72
2021/08/14 08:20:16;;;;;;;31.50;7.88;;;;;;;19.89;70.23;102227.28;5032690;28;20036;-72
2021/08/14 08:22:43;;;;;;;39.15;9.30;;;;;;;19.94;70.47;102221.38;5032385;28;20038;-72
2021/08/14 08:25:09;;;;;;;26.40;7.55;;;;;;;20.19;69.21;102221.41;5031998;28;20029;-72
2021/08/14 08:27:40;;;;;;;34.38;7.95;;;;;;;20.29;68.25;102218.50;5032489;28;20048;-72
2021/08/14 08:30:08;;;;;;;24.50;6.82;;;;;;;20.46;68.33;102213.94;5031627;28;20041;-77
2021/08/14 08:32:33;;;;;;;25.58;6.95;;;;;;;20.92;64.62;102209.63;5032741;28;20037;-76
2021/08/14 08:34:59;;;;;;;25.23;6.53;;;;;;;21.16;65.44;102207.84;5030647;28;20099;-73
2021/08/14 08:37:24;;;;;;;26.45;6.43;;;;;;;21.09;63.38;102209.56;5032112;28;20060;-73
2021/08/14 08:39:50;;;;;;;20.67;5.85;;;;;;;21.59;60.53;102216.44;5031502;28;20037;-72
2021/08/14 08:42:15;;;;;;;18.35;5.30;;;;;;;21.98;57.23;102217.34;5036991;28;20033;-72
2021/08/14 08:44:40;;;;;;;15.43;4.40;;;;;;;22.49;55.70;102220.31;5048889;28;20271;-72
2021/08/14 08:47:08;;;;;;;25.08;5.55;;;;;;;22.79;56.97;102217.63;5053925;28;20087;-72
2021/08/14 08:49:34;;;;;;;18.17;5.47;;;;;;;22.56;55.36;102222.28;5054786;28;20465;-72
2021/08/14 08:52:00;;;;;;;13.48;4.90;;;;;;;22.50;55.11;102221.16;5054110;28;20039;-72
2021/08/14 08:54:25;;;;;;;22.70;5.55;;;;;;;22.14;57.06;102209.09;5054731;28;20065;-72
2021/08/14 08:56:51;;;;;;;18.08;5.40;;;;;;;21.74;58.12;102213.81;5054433;28;20104;-73
2021/08/14 08:59:16;;;;;;;17.65;5.80;;;;;;;21.50;58.75;102217.53;5053825;28;20028;-72
2021/08/14 09:01:42;;;;;;;20.95;5.07;;;;;;;21.39;57.27;102216.03;5054195;28;20537;-73
2021/08/14 09:04:26;;;;;;;17.65;5.40;;;;;;;21.26;58.95;102221.19;5053580;28;20029;-72
2021/08/14 09:06:53;;;;;;;18.85;5.18;;;;;;;21.04;59.79;102215.50;5053836;28;20068;-74
2021/08/14 09:09:24;;;;;;;19.00;5.60;;;;;;;20.65;59.83;102227.09;5053826;28;20037;-74
2021/08/14 09:11:51;;;;;;;18.48;5.80;;;;;;;20.40;60.85;102220.88;5054159;28;20029;-74
2021/08/14 09:14:18;;;;;;;16.20;5.38;;;;;;;20.20;61.59;102228.50;5053678;28;20234;-73
2021/08/14 09:16:43;;;;;;;18.10;5.15;;;;;;;19.90;62.61;102226.28;5054165;28;20040;-73
2021/08/14 09:19:23;;;;;;;13.65;4.93;;;;;;;19.77;62.89;102228.59;5053471;28;20369;-72
2021/08/14 09:21:49;;;;;;;22.35;5.90;;;;;;;21.17;59.54;102214.09;5054431;28;20060;-74
2021/08/14 09:24:32;;;;;;;13.50;4.53;;;;;;;23.83;50.66;102216.59;5052346;28;20063;-75
2021/08/14 09:27:00;;;;;;;18.75;5.30;;;;;;;24.53;47.73;102214.06;5053965;28;20114;-75
2021/08/14 09:29:36;;;;;;;15.32;5.13;;;;;;;24.88;49.68;102224.97;5054128;28;20079;-75
2021/08/14 09:32:05;;;;;;;24.50;5.18;;;;;;;26.00;46.20;102213.81;5053584;28;20473;-73
2021/08/14 09:34:31;;;;;;;18.45;5.40;;;;;;;27.26;43.35;102220.09;5054217;28;20021;-74
2021/08/14 09:36:57;;;;;;;14.68;4.85;;;;;;;27.57;41.12;102221.22;5053860;28;20035;-74
2021/08/14 09:39:23;;;;;;;17.73;5.00;;;;;;;25.78;44.95;102226.78;5053300;28;20100;-75
2021/08/14 09:41:48;;;;;;;16.35;5.38;;;;;;;23.98;48.74;102229.31;5053654;28;20083;-75
2021/08/14 09:44:14;;;;;;;12.85;5.10;;;;;;;24.24;48.10;102225.97;5053157;28;20431;-74
2021/08/14 09:46:42;;;;;;;15.50;4.97;;;;;;;25.73;45.51;102224.66;5053368;28;20488;-75
2021/08/14 09:49:07;;;;;;;16.05;5.05;;;;;;;26.82;41.66;102224.47;5052560;28;20029;-74
2021/08/14 09:51:33;;;;;;;15.93;5.32;;;;;;;26.63;41.61;102223.44;5053732;28;20531;-74
2021/08/14 09:54:03;;;;;;;19.95;5.57;;;;;;;25.39;44.49;102229.19;5053559;28;20381;-74
2021/08/14 09:56:35;;;;;;;16.60;5.55;;;;;;;25.60;45.52;102222.78;5053423;28;20469;-74
2021/08/14 09:59:02;;;;;;;14.23;5.10;;;;;;;26.88;41.14;102218.97;5052396;28;20030;-74
2021/08/14 10:01:30;;;;;;;14.30;4.32;;;;;;;27.50;40.29;102224.00;5053529;28;20064;-75
2021/08/14 10:03:57;;;;;;;14.57;4.93;;;;;;;27.89;38.64;102230.25;5053857;28;20029;-75
2021/08/14 10:06:23;;;;;;;14.10;4.90;;;;;;;27.71;39.00;102231.00;5053173;28;20124;-73
2021/08/14 10:08:48;;;;;;;16.63;5.47;;;;;;;26.42;41.37;102227.25;5054772;28;20115;-75
2021/08/14 10:11:14;;;;;;;19.23;5.57;;;;;;;24.85;45.31;102229.97;5052775;28;20029;-76
2021/08/14 10:13:44;;;;;;;12.02;4.75;;;;;;;24.91;45.26;102226.44;5053733;28;20047;-75
2021/08/14 10:16:10;;;;;;;17.65;5.15;;;;;;;25.80;44.34;102219.25;5051562;28;20120;-73
2021/08/14 10:18:37;;;;;;;14.63;4.80;;;;;;;26.89;42.53;102212.47;5052802;28;20528;-73
2021/08/14 10:21:03;;;;;;;13.82;5.28;;;;;;;27.64;39.56;102219.28;5053530;28;20060;-73
2021/08/14 10:23:28;;;;;;;18.00;5.57;;;;;;;28.31;39.67;102213.31;5052815;28;20132;-73
2021/08/14 10:26:04;;;;;;;12.98;4.85;;;;;;;28.88;37.65;102218.63;5051797;28;20044;-73
2021/08/14 10:28:45;;;;;;;14.25;5.28;;;;;;;28.98;38.97;102218.09;5053125;28;20469;-74
2021/08/14 10:31:29;;;;;;;14.23;4.93;;;;;;;28.65;36.30;102227.53;5052487;28;20029;-73
2021/08/14 10:33:54;;;;;;;12.50;4.75;;;;;;;27.92;38.76;102215.31;5053086;28;20078;-73
2021/08/14 10:36:21;;;;;;;16.05;4.95;;;;;;;28.59;38.42;102212.81;5051935;28;20025;-73
2021/08/14 10:38:50;;;;;;;15.13;4.88;;;;;;;28.43;36.72;102219.72;5052943;28;20115;-74
2021/08/14 10:41:17;;;;;;;11.60;4.40;;;;;;;27.48;38.77;102225.25;5052240;28;20029;-73
2021/08/14 10:43:51;;;;;;;16.30;4.90;;;;;;;25.85;41.77;102223.00;5052991;28;20078;-73
2021/08/14 10:46:38;;;;;;;13.15;4.38;;;;;;;24.59;44.95;102218.72;5051977;28;20029;-74
2021/08/14 10:49:05;;;;;;;13.15;4.35;;;;;;;24.38;46.90;102218.75;5052409;28;20552;-73
2021/08/14 10:51:50;;;;;;;13.25;4.80;;;;;;;25.66;44.34;102219.22;5051827;28;20111;-73
2021/08/14 10:54:28;;;;;;;12.85;4.70;;;;;;;27.23;41.44;102215.03;5051611;28;20568;-72
2021/08/14 10:57:05;;;;;;;14.05;4.82;;;;;;;28.17;38.12;102222.69;5052340;28;20205;-73
2021/08/14 10:59:39;;;;;;;15.00;4.55;;;;;;;28.92;36.49;102224.50;5052257;28;20462;-72
2021/08/14 11:02:12;;;;;;;14.15;4.38;;;;;;;29.34;38.25;102219.13;5052505;28;20063;-72
2021/08/14 11:04:53;;;;;;;13.00;4.88;;;;;;;28.90;37.56;102221.13;5052398;28;20025;-75
2021/08/14 11:09:47;;;;;;;13.85;4.70;;;;;;;27.48;39.40;102206.97;5052496;28;20123;-77
2021/08/14 11:12:33;;;;;;;11.98;4.70;;;;;;;27.35;40.21;102215.22;5050690;28;20029;-74
2021/08/14 11:15:18;;;;;;;11.90;4.05;;;;;;;27.88;39.19;102214.91;5052460;28;20029;-76
2021/08/14 11:17:49;;;;;;;13.93;4.60;;;;;;;27.79;39.87;102219.78;5052301;28;20033;-75